Golden Meadow, LA

10:44 PM CST on March 01, 2015 (GMT -0600)
Fourchon | Change Station
CLOSE
Current Station
Airport
Location: Fourchon,
Elevation: 7 ft
Nearby Weather Stations
Active Advisory: Dense Fog Advisory

Elev 7 ft 29.10 °N, 90.20 °W | Updated 6 hours ago

Fog
Fog
61 °F
Feels Like 61 °F
N
8
Wind Variable Wind from ESE
Gusts 11 mph

Today
High -- | Low -- °F
--% Chance of Precip.
Yesterday
High -- | Low -- °F
Precip. -- in
6:26 AM 6:00 PM
Waxing Gibbous, 89% visible
Pressure 30.21 in
Visibility 7.0 miles
Clouds Scattered Clouds 10000 ft
Dew Point 61 °F
Humidity 100%
Rainfall 0.00 in
Snow Depth Not available.
UV 2 out of 12
Pollen 9.40 out of 12
Air Quality Not available.
Flu Activity Not available.
SPECI K9F2 012214Z 12008KT 7SM SCT100 20/20 A3021 RMK LAST

More Conditions Fewer Conditions

Pressure 30.21 in
Visibility 7.0 miles
Clouds Scattered Clouds 10000 ft
Dew Point 61 °F
Humidity 100%
Rainfall 0.00 in
Snow Depth Not available.
UV 2 out of 12
Pollen 9.40 out of 12
Air Quality Not available.
Flu Activity Not available.
SPECI K9F2 012214Z 12008KT 7SM SCT100 20/20 A3021 RMK LAST

More Conditions Fewer Conditions

10-Day Weather Forecast

Almanac

Astronomy

Mar. 01, 2015 Rise Set
Actual Time
Civil Twilight
Nautical Twilight
Astronomical Twilight
Moon
Length of Visible Light
Length of Day
Tomorrow will be .
, % of the Moon is Illuminated

Today's Extremes

State Highs State Lows

Community

WunderPhotos

Upload Photos

1,801,725 photos uploaded!

WunderBlogs® & News

Nearby

Air Quality

  Air Quality AQ Index Pollutant
Not available.

Snow Depth

Station Depth Elevation

Earthquake Activity

City Distance Mag. Time & Date
Minimum magnitude displayed is 2.5.

Coastal Water Temperatures

Place Temperature

Nearby Weather Stations

Dense Fog Advisory
Statement as of 9:39 PM CST on March 01, 2015

... Dense fog advisory remains in effect until 9 am CST Monday...

* visibility... one quarter mile or less.

* Duration... areas of fog tonight through mid morning.

* Impacts... reduced visibilities on area roadways including both
interstates 10 and 12 and bridges over waterways.

Precautionary/preparedness actions...

A dense fog advisory means visibilities will frequently be
reduced to less than one quarter mile. If driving... slow down...
use your headlights... and leave plenty of distance ahead of you.